createdAt,value
2018-08-28T00:00:02.190Z,13.70
2018-08-28T00:01:02.183Z,14.90
2018-08-28T00:02:02.147Z,13.10
2018-08-28T00:03:02.123Z,14.30
2018-08-28T00:04:02.100Z,17.00
2018-08-28T00:05:02.077Z,15.00
2018-08-28T00:06:02.057Z,15.20
2018-08-28T00:07:02.036Z,15.20
2018-08-28T00:08:02.009Z,13.00
2018-08-28T00:09:01.986Z,13.40
2018-08-28T00:10:01.965Z,15.70
2018-08-28T00:11:01.942Z,13.90
2018-08-28T00:12:01.919Z,11.00
2018-08-28T00:13:01.895Z,14.10
2018-08-28T00:14:01.872Z,13.90
2018-08-28T00:15:01.852Z,13.20
2018-08-28T00:16:01.828Z,13.10
2018-08-28T00:17:01.831Z,16.20
2018-08-28T00:18:01.783Z,12.90
2018-08-28T00:19:01.761Z,13.70
2018-08-28T00:20:01.736Z,13.90
2018-08-28T00:21:01.714Z,13.40
2018-08-28T00:22:01.692Z,14.40
2018-08-28T00:23:01.669Z,12.00
2018-08-28T00:24:01.645Z,18.40
2018-08-28T00:25:01.624Z,16.80
2018-08-28T00:26:01.601Z,13.40
2018-08-28T00:27:01.579Z,11.90
2018-08-28T00:28:01.555Z,16.30
2018-08-28T00:29:01.533Z,15.30
2018-08-28T00:30:01.511Z,15.10
2018-08-28T00:31:01.488Z,13.80
2018-08-28T00:32:01.467Z,12.40
2018-08-28T00:33:01.443Z,13.60
2018-08-28T00:34:01.420Z,12.30
2018-08-28T00:35:01.399Z,13.90
2018-08-28T00:36:01.383Z,11.80
2018-08-28T00:37:01.353Z,13.60
2018-08-28T00:38:01.330Z,13.40
2018-08-28T00:39:01.307Z,17.50
2018-08-28T00:40:01.296Z,13.80
2018-08-28T00:41:01.262Z,12.20
2018-08-28T00:42:01.239Z,15.40
2018-08-28T00:43:01.217Z,13.90
2018-08-28T00:44:01.193Z,14.50
2018-08-28T00:45:01.170Z,16.10
2018-08-28T00:46:01.151Z,13.00
2018-08-28T00:47:01.126Z,16.40
2018-08-28T00:48:01.103Z,13.50
2018-08-28T00:49:01.078Z,12.60
2018-08-28T00:50:01.057Z,11.20
2018-08-28T00:51:01.035Z,14.50
2018-08-28T00:52:01.011Z,12.00
2018-08-28T00:53:00.990Z,15.20
2018-08-28T00:54:00.966Z,12.20
2018-08-28T00:55:00.943Z,12.30
2018-08-28T00:56:00.920Z,12.70
2018-08-28T00:57:00.898Z,13.80
2018-08-28T00:58:00.875Z,15.60
2018-08-28T00:59:00.852Z,12.50
2018-08-28T01:00:00.828Z,12.70
2018-08-28T01:01:00.807Z,13.90
2018-08-28T01:02:00.784Z,12.70
2018-08-28T01:03:00.762Z,14.80
2018-08-28T01:04:00.738Z,13.30
2018-08-28T01:05:00.715Z,14.10
2018-08-28T01:06:00.692Z,12.30
2018-08-28T01:07:00.675Z,14.00
2018-08-28T01:08:00.647Z,16.60
2018-08-28T01:09:00.625Z,13.40
2018-08-28T01:10:00.601Z,12.50
2018-08-28T01:11:00.581Z,15.40
2018-08-28T01:12:00.556Z,12.20
2018-08-28T01:13:00.534Z,15.40
2018-08-28T01:14:00.510Z,16.50
2018-08-28T01:15:00.488Z,13.80
2018-08-28T01:16:00.464Z,20.00
2018-08-28T01:17:00.443Z,15.60
2018-08-28T01:18:00.420Z,12.30
2018-08-28T01:19:00.396Z,15.80
2018-08-28T01:20:00.377Z,14.00
2018-08-28T01:21:00.355Z,13.50
2018-08-28T01:22:00.329Z,12.70
2018-08-28T01:23:00.307Z,10.90
2018-08-28T01:24:00.285Z,14.20
2018-08-28T01:25:00.260Z,17.40
2018-08-28T01:26:00.238Z,13.90
2018-08-28T01:27:00.217Z,12.90
2018-08-28T01:28:00.191Z,13.60
2018-08-28T01:29:00.170Z,15.60
2018-08-28T01:30:00.147Z,13.90
2018-08-28T01:31:00.125Z,12.30
2018-08-28T01:32:00.101Z,12.40
2018-08-28T01:33:00.078Z,15.80
2018-08-28T01:34:00.058Z,14.00
2018-08-28T01:35:00.036Z,16.10
2018-08-28T01:36:00.014Z,14.50
2018-08-28T01:36:59.995Z,15.90
2018-08-28T01:37:59.965Z,14.60
2018-08-28T01:38:59.944Z,11.10
2018-08-28T01:39:59.921Z,12.40
2018-08-28T01:40:59.897Z,13.90
2018-08-28T01:41:59.876Z,14.60
2018-08-28T01:42:59.857Z,13.90
2018-08-28T01:43:59.829Z,11.20
2018-08-28T01:44:59.807Z,17.20
2018-08-28T01:45:59.785Z,14.40
2018-08-28T01:46:59.761Z,13.70
2018-08-28T01:47:59.738Z,13.60
2018-08-28T01:48:59.715Z,16.40
2018-08-28T01:49:59.694Z,15.50
2018-08-28T01:50:59.672Z,14.20
2018-08-28T01:51:59.649Z,17.50
2018-08-28T01:52:59.626Z,15.80
2018-08-28T01:53:59.604Z,16.40
2018-08-28T01:54:59.580Z,16.90
2018-08-28T01:55:59.557Z,15.20
2018-08-28T01:56:59.534Z,14.70
2018-08-28T01:57:59.512Z,14.70
2018-08-28T01:58:59.490Z,14.70
2018-08-28T01:59:59.466Z,13.00
2018-08-28T02:00:59.442Z,16.00
2018-08-28T02:01:59.419Z,16.60
2018-08-28T02:02:59.397Z,14.80
2018-08-28T02:03:59.373Z,19.00
2018-08-28T02:04:59.355Z,15.50
2018-08-28T02:05:59.328Z,16.20
2018-08-28T02:06:59.304Z,17.10
2018-08-28T02:07:59.280Z,15.80
2018-08-28T02:08:59.258Z,16.00
2018-08-28T02:09:59.234Z,15.80
2018-08-28T02:10:59.212Z,16.80
2018-08-28T02:11:59.188Z,15.30
2018-08-28T02:12:59.164Z,16.20
2018-08-28T02:13:59.142Z,14.90
2018-08-28T02:14:59.118Z,15.90
2018-08-28T02:15:59.095Z,23.40
2018-08-28T02:16:59.071Z,16.10
2018-08-28T02:17:59.047Z,12.50
2018-08-28T02:18:59.024Z,15.20
2018-08-28T02:19:59.001Z,16.70
2018-08-28T02:20:58.977Z,14.70
2018-08-28T02:21:58.955Z,16.00
2018-08-28T02:22:58.930Z,14.70
2018-08-28T02:23:58.906Z,13.30
2018-08-28T02:24:58.884Z,18.40
2018-08-28T02:25:58.860Z,17.30
2018-08-28T02:26:58.838Z,18.30
2018-08-28T02:27:58.812Z,18.00
2018-08-28T02:28:58.789Z,18.20
2018-08-28T02:29:58.769Z,19.00
2018-08-28T02:30:58.741Z,17.90
2018-08-28T02:31:58.718Z,16.70
2018-08-28T02:32:58.693Z,17.90
2018-08-28T02:33:58.670Z,12.70
2018-08-28T02:34:58.647Z,18.50
2018-08-28T02:35:58.623Z,15.10
2018-08-28T02:36:58.599Z,15.20
2018-08-28T02:37:58.575Z,16.10
2018-08-28T02:38:58.553Z,15.00
2018-08-28T02:39:58.528Z,14.60
2018-08-28T02:40:58.503Z,13.70
2018-08-28T02:41:58.481Z,22.90
2018-08-28T02:42:58.457Z,21.80
2018-08-28T02:43:58.432Z,18.10
2018-08-28T02:44:58.409Z,22.80
2018-08-28T02:45:58.384Z,17.90
2018-08-28T02:46:58.362Z,13.70
2018-08-28T02:47:58.335Z,18.20
2018-08-28T02:48:58.311Z,15.00
2018-08-28T02:49:58.287Z,16.10
2018-08-28T02:50:58.264Z,22.40
2018-08-28T02:51:58.241Z,22.40
2018-08-28T02:52:58.214Z,22.00
2018-08-28T02:53:58.194Z,15.50
2018-08-28T02:54:58.167Z,19.10
2018-08-28T02:55:58.148Z,19.50
2018-08-28T02:56:58.119Z,14.40
2018-08-28T02:57:58.095Z,16.60
2018-08-28T02:58:58.072Z,13.70
2018-08-28T02:59:58.045Z,19.30
2018-08-28T03:00:58.022Z,16.30
2018-08-28T03:01:57.999Z,20.10
2018-08-28T03:02:58.058Z,16.30
2018-08-28T03:03:57.951Z,16.40
2018-08-28T03:04:57.924Z,14.80
2018-08-28T03:05:57.900Z,16.90
2018-08-28T03:06:57.881Z,15.20
2018-08-28T03:07:57.852Z,18.00
2018-08-28T03:08:57.826Z,17.40
2018-08-28T03:09:57.804Z,16.60
2018-08-28T03:10:57.779Z,19.30
2018-08-28T03:11:57.755Z,18.70
2018-08-28T03:12:57.730Z,21.20
2018-08-28T03:13:57.706Z,15.70
2018-08-28T03:14:57.681Z,14.70
2018-08-28T03:15:57.679Z,18.30
2018-08-28T03:16:57.633Z,16.80
2018-08-28T03:17:57.607Z,24.40
2018-08-28T03:18:57.585Z,20.10
2018-08-28T03:19:57.559Z,20.90
2018-08-28T03:20:57.533Z,21.00
2018-08-28T03:21:57.510Z,18.20
2018-08-28T03:22:57.484Z,17.70
2018-08-28T03:23:57.462Z,19.90
2018-08-28T03:24:57.436Z,18.30
2018-08-28T03:25:57.410Z,17.50
2018-08-28T03:26:57.388Z,16.50
2018-08-28T03:27:57.362Z,18.90
2018-08-28T03:28:57.341Z,17.30
2018-08-28T03:29:57.336Z,19.80
2018-08-28T03:30:57.293Z,21.40
2018-08-28T03:31:57.263Z,19.90
2018-08-28T03:32:57.237Z,19.60
2018-08-28T03:33:57.215Z,16.40
2018-08-28T03:34:57.189Z,17.00
2018-08-28T03:35:57.165Z,20.20
2018-08-28T03:36:57.139Z,16.10
2018-08-28T03:37:57.115Z,15.50
2018-08-28T03:38:57.090Z,19.10
2018-08-28T03:39:57.065Z,23.50
2018-08-28T03:40:57.039Z,22.30
2018-08-28T03:41:57.039Z,25.20
2018-08-28T03:42:56.991Z,24.30
2018-08-28T03:43:56.965Z,20.60
2018-08-28T03:44:56.941Z,22.80
2018-08-28T03:45:56.916Z,22.40
2018-08-28T03:46:56.892Z,21.10
2018-08-28T03:47:56.866Z,22.40
2018-08-28T03:48:56.841Z,27.50
2018-08-28T03:49:56.816Z,22.90
2018-08-28T03:50:56.796Z,23.60
2018-08-28T03:51:56.770Z,31.10
2018-08-28T03:52:56.743Z,27.40
2018-08-28T03:53:56.782Z,24.10
2018-08-28T03:54:56.691Z,22.10
2018-08-28T03:55:56.667Z,26.50
2018-08-28T03:56:56.642Z,26.60
2018-08-28T03:57:56.616Z,26.00
2018-08-28T03:58:56.593Z,21.80
2018-08-28T03:59:56.567Z,27.50
2018-08-28T04:00:56.542Z,30.40
2018-08-28T04:01:56.518Z,28.10
2018-08-28T04:02:56.493Z,23.40
2018-08-28T04:03:56.467Z,22.50
2018-08-28T04:04:56.443Z,20.80
2018-08-28T04:05:56.418Z,22.30
2018-08-28T04:06:56.392Z,22.00
2018-08-28T04:07:56.370Z,19.00
2018-08-28T04:08:56.342Z,22.20
2018-08-28T04:09:56.318Z,19.20
2018-08-28T04:10:56.293Z,19.80
2018-08-28T04:11:56.268Z,21.70
2018-08-28T04:12:56.242Z,25.80
2018-08-28T04:13:56.218Z,21.40
2018-08-28T04:14:56.192Z,19.80
2018-08-28T04:15:56.168Z,21.50
2018-08-28T04:16:56.160Z,22.90
2018-08-28T04:17:56.118Z,25.30
2018-08-28T04:18:56.093Z,19.20
2018-08-28T04:19:56.069Z,25.80
2018-08-28T04:20:56.042Z,24.80
2018-08-28T04:21:56.019Z,24.60
2018-08-28T04:22:55.993Z,21.50
2018-08-28T04:23:55.967Z,22.60
2018-08-28T04:24:55.943Z,19.70
2018-08-28T04:25:55.919Z,19.10
2018-08-28T04:26:55.892Z,20.50
2018-08-28T04:27:55.867Z,24.50
2018-08-28T04:28:55.842Z,23.40
2018-08-28T04:29:55.818Z,18.90
2018-08-28T04:30:55.835Z,25.40
2018-08-28T04:31:55.768Z,24.10
2018-08-28T04:32:55.742Z,16.20
2018-08-28T04:33:55.716Z,26.80
2018-08-28T04:34:55.693Z,23.40
2018-08-28T04:35:55.666Z,20.40
2018-08-28T04:36:55.641Z,18.20
2018-08-28T04:37:55.619Z,21.80
2018-08-28T04:38:55.591Z,23.40
2018-08-28T04:39:55.566Z,30.30
2018-08-28T04:40:55.542Z,22.40
2018-08-28T04:41:55.614Z,20.70
2018-08-28T04:42:55.492Z,23.10
2018-08-28T04:43:55.469Z,22.70
2018-08-28T04:44:55.442Z,23.40
2018-08-28T04:45:55.415Z,19.80
2018-08-28T04:46:55.392Z,22.80
2018-08-28T04:47:55.366Z,21.30
2018-08-28T04:48:55.408Z,18.50
2018-08-28T04:49:55.315Z,22.00
2018-08-28T04:50:55.289Z,24.70
2018-08-28T04:51:55.266Z,16.70
2018-08-28T04:52:55.240Z,18.40
2018-08-28T04:53:55.218Z,18.40
2018-08-28T04:54:55.233Z,22.60
2018-08-28T04:55:55.164Z,19.50
2018-08-28T04:56:55.140Z,18.40
2018-08-28T04:57:55.115Z,24.50
2018-08-28T04:58:55.096Z,24.20
2018-08-28T04:59:55.063Z,18.00
2018-08-28T05:00:55.041Z,19.40
2018-08-28T05:01:55.014Z,18.30
2018-08-28T05:02:54.989Z,22.20
2018-08-28T05:03:54.965Z,23.70
2018-08-28T05:04:54.939Z,20.60
2018-08-28T05:05:54.918Z,21.20
2018-08-28T05:06:54.891Z,22.90
2018-08-28T05:07:54.864Z,20.00
2018-08-28T05:08:54.844Z,20.00
2018-08-28T05:09:54.816Z,18.20
2018-08-28T05:10:54.790Z,22.80
2018-08-28T05:11:54.830Z,20.60
2018-08-28T05:12:54.741Z,18.80
2018-08-28T05:13:54.715Z,18.70
2018-08-28T05:14:54.691Z,24.90
2018-08-28T05:15:54.720Z,17.20
2018-08-28T05:16:54.641Z,20.50
2018-08-28T05:17:54.616Z,22.50
2018-08-28T05:18:54.591Z,19.20
2018-08-28T05:19:54.567Z,18.20
2018-08-28T05:20:54.542Z,18.40
2018-08-28T05:21:54.519Z,20.10
2018-08-28T05:22:54.492Z,16.40
2018-08-28T05:23:54.469Z,17.80
2018-08-28T05:24:54.444Z,14.20
2018-08-28T05:25:54.419Z,14.90
2018-08-28T05:26:54.394Z,18.50
2018-08-28T05:27:54.370Z,15.00
2018-08-28T05:28:54.349Z,17.20
2018-08-28T05:29:54.322Z,17.30
2018-08-28T05:30:54.298Z,15.60
2018-08-28T05:31:54.272Z,15.90
2018-08-28T05:32:54.249Z,18.50
2018-08-28T05:33:54.225Z,16.70
2018-08-28T05:34:54.201Z,17.40
2018-08-28T05:35:54.176Z,15.40
2018-08-28T05:36:54.153Z,15.10
2018-08-28T05:37:54.186Z,19.10
2018-08-28T05:38:54.105Z,16.70
2018-08-28T05:39:54.079Z,16.70
2018-08-28T05:40:54.055Z,15.50
2018-08-28T05:41:54.035Z,14.00
2018-08-28T05:42:54.009Z,13.60
2018-08-28T05:43:53.985Z,13.70
2018-08-28T05:44:53.962Z,13.30
2018-08-28T05:45:53.943Z,14.20
2018-08-28T05:46:53.916Z,13.30
2018-08-28T05:47:53.894Z,11.30
2018-08-28T05:48:53.871Z,13.90
2018-08-28T05:49:53.849Z,9.80
2018-08-28T05:50:53.826Z,11.10
2018-08-28T05:51:53.804Z,13.50
2018-08-28T05:52:53.782Z,11.00
2018-08-28T05:53:53.759Z,13.90
2018-08-28T05:54:53.790Z,11.00
2018-08-28T05:55:53.775Z,10.70
2018-08-28T05:56:53.695Z,14.60
2018-08-28T05:57:53.674Z,12.90
2018-08-28T05:58:53.654Z,11.80
2018-08-28T05:59:53.629Z,12.30
2018-08-28T06:00:53.608Z,9.80
2018-08-28T06:01:53.588Z,10.30
2018-08-28T06:02:53.626Z,9.70
2018-08-28T06:03:53.546Z,12.10
2018-08-28T06:04:53.526Z,12.70
2018-08-28T06:05:53.505Z,14.10
2018-08-28T06:06:53.483Z,9.30
2018-08-28T06:07:53.462Z,8.70
2018-08-28T06:08:53.483Z,8.90
2018-08-28T06:09:53.423Z,10.80
2018-08-28T06:10:53.402Z,9.20
2018-08-28T06:11:53.381Z,8.90
2018-08-28T06:12:53.360Z,9.90
2018-08-28T06:13:53.341Z,10.30
2018-08-28T06:14:53.351Z,11.50
2018-08-28T06:15:53.300Z,10.70
2018-08-28T06:16:53.282Z,12.60
2018-08-28T06:17:53.263Z,11.00
2018-08-28T06:18:53.244Z,8.90
2018-08-28T06:19:53.223Z,10.00
2018-08-28T06:20:53.203Z,10.90
2018-08-28T06:21:53.185Z,10.20
2018-08-28T06:22:53.224Z,9.40
2018-08-28T06:23:53.146Z,10.40
2018-08-28T06:24:53.127Z,10.20
2018-08-28T06:25:53.109Z,10.10
2018-08-28T06:26:53.089Z,9.20
2018-08-28T06:27:53.070Z,10.80
2018-08-28T06:28:53.050Z,10.40
2018-08-28T06:29:53.115Z,10.80
2018-08-28T06:30:53.013Z,9.50
2018-08-28T06:31:52.994Z,7.90
2018-08-28T06:32:52.975Z,11.10
2018-08-28T06:33:52.961Z,10.90
2018-08-28T06:34:52.938Z,11.00
2018-08-28T06:35:52.920Z,9.00
2018-08-28T06:36:52.903Z,12.80
2018-08-28T06:37:52.883Z,8.70
2018-08-28T06:38:52.865Z,7.50
2018-08-28T06:39:52.847Z,12.20
2018-08-28T06:40:52.828Z,10.30
2018-08-28T06:41:52.811Z,10.20
2018-08-28T06:42:52.792Z,8.30
2018-08-28T06:43:52.856Z,8.80
2018-08-28T06:44:52.758Z,9.00
2018-08-28T06:45:52.739Z,10.60
2018-08-28T06:46:52.722Z,8.70
2018-08-28T06:47:52.703Z,9.20
2018-08-28T06:48:52.686Z,10.70
2018-08-28T06:49:52.669Z,8.70
2018-08-28T06:50:52.650Z,8.60
2018-08-28T06:51:52.632Z,11.70
2018-08-28T06:52:52.616Z,10.40
2018-08-28T06:53:52.596Z,9.00
2018-08-28T06:54:52.578Z,13.20
2018-08-28T06:55:52.559Z,11.20
2018-08-28T06:56:52.574Z,10.60
2018-08-28T06:57:52.525Z,12.30
2018-08-28T06:58:52.503Z,10.50
2018-08-28T06:59:52.487Z,10.80
2018-08-28T07:00:52.468Z,11.40
2018-08-28T07:01:52.452Z,11.80
2018-08-28T07:02:52.434Z,11.00
2018-08-28T07:03:52.421Z,9.30
2018-08-28T07:04:52.397Z,8.20
2018-08-28T07:05:52.381Z,11.60
2018-08-28T07:06:52.363Z,8.80
2018-08-28T07:07:52.388Z,12.90
2018-08-28T07:08:52.328Z,10.20
2018-08-28T07:09:52.311Z,8.70
2018-08-28T07:10:52.294Z,13.00
2018-08-28T07:11:52.275Z,10.30
2018-08-28T07:12:52.258Z,10.30
2018-08-28T07:13:52.242Z,8.80
2018-08-28T07:14:52.225Z,11.20
2018-08-28T07:15:52.209Z,8.50
2018-08-28T07:16:52.193Z,13.40
2018-08-28T07:17:52.177Z,9.20
2018-08-28T07:18:52.270Z,9.30
2018-08-28T07:19:52.145Z,11.00
2018-08-28T07:20:52.124Z,10.40
2018-08-28T07:21:52.108Z,16.40
2018-08-28T07:22:52.093Z,12.50
2018-08-28T07:23:52.074Z,11.00
2018-08-28T07:24:52.057Z,8.70
2018-08-28T07:25:52.061Z,11.30
2018-08-28T07:26:52.074Z,8.80
2018-08-28T07:27:52.007Z,9.90
2018-08-28T07:28:51.991Z,12.70
2018-08-28T07:29:51.977Z,9.20
2018-08-28T07:30:51.959Z,11.70
2018-08-28T07:31:52.056Z,9.10
2018-08-28T07:32:51.926Z,8.30
2018-08-28T07:33:51.909Z,10.50
2018-08-28T07:34:51.894Z,8.00
2018-08-28T07:35:51.876Z,10.60
2018-08-28T07:36:51.863Z,8.70
2018-08-28T07:37:51.843Z,8.90
2018-08-28T07:38:51.829Z,10.30
2018-08-28T07:39:51.811Z,8.90
2018-08-28T07:40:51.796Z,8.30
2018-08-28T07:41:51.781Z,9.60
2018-08-28T07:42:51.828Z,10.20
2018-08-28T07:43:51.751Z,12.40
2018-08-28T07:44:51.733Z,9.80
2018-08-28T07:45:51.717Z,11.50
2018-08-28T07:46:51.702Z,11.30
2018-08-28T07:47:51.686Z,9.60
2018-08-28T07:48:51.705Z,9.70
2018-08-28T07:49:51.655Z,7.50
2018-08-28T07:50:51.638Z,9.10
2018-08-28T07:51:51.621Z,9.30
2018-08-28T07:52:51.607Z,15.10
2018-08-28T07:53:51.651Z,9.10
2018-08-28T07:54:51.577Z,9.60
2018-08-28T07:55:51.560Z,7.60
2018-08-28T07:56:51.545Z,8.50
2018-08-28T07:57:51.530Z,8.00
2018-08-28T07:58:51.516Z,9.40
2018-08-28T07:59:51.500Z,10.20
2018-08-28T08:00:51.486Z,7.70
2018-08-28T08:01:51.470Z,8.40
2018-08-28T08:02:51.453Z,9.90
2018-08-28T08:03:51.439Z,10.20
2018-08-28T08:04:51.424Z,9.90
2018-08-28T08:05:51.413Z,10.70
2018-08-28T08:06:51.393Z,8.00
2018-08-28T08:07:51.412Z,8.60
2018-08-28T08:08:51.364Z,7.10
2018-08-28T08:09:51.349Z,11.40
2018-08-28T08:10:51.335Z,11.40
2018-08-28T08:11:51.317Z,8.60
2018-08-28T08:12:51.304Z,11.10
2018-08-28T08:13:51.289Z,9.50
2018-08-28T08:14:51.275Z,7.30
2018-08-28T08:15:51.260Z,9.00
2018-08-28T08:16:51.245Z,9.40
2018-08-28T08:17:51.237Z,9.80
2018-08-28T08:18:51.218Z,9.40
2018-08-28T08:19:51.200Z,10.80
2018-08-28T08:20:51.187Z,12.30
2018-08-28T08:21:51.171Z,9.50
2018-08-28T08:22:51.157Z,9.90
2018-08-28T08:23:51.144Z,9.30
2018-08-28T08:24:51.131Z,8.80
2018-08-28T08:25:51.114Z,10.90
2018-08-28T08:26:51.098Z,6.40
2018-08-28T08:27:51.107Z,9.10
2018-08-28T08:28:51.068Z,8.70
2018-08-28T08:29:51.054Z,9.30
2018-08-28T08:30:51.038Z,9.40
2018-08-28T08:31:51.029Z,7.70
2018-08-28T08:32:51.008Z,6.10
2018-08-28T08:33:50.994Z,9.80
2018-08-28T08:34:50.980Z,9.40
2018-08-28T08:35:50.968Z,10.90
2018-08-28T08:36:50.949Z,8.80
2018-08-28T08:37:50.936Z,9.70
2018-08-28T08:38:50.921Z,6.60
2018-08-28T08:39:50.906Z,9.20
2018-08-28T08:40:50.891Z,11.20
2018-08-28T08:41:50.899Z,8.70
2018-08-28T08:42:50.861Z,6.60
2018-08-28T08:43:50.848Z,7.80
2018-08-28T08:44:50.834Z,8.10
2018-08-28T08:45:50.820Z,6.40
2018-08-28T08:46:50.806Z,8.10
2018-08-28T08:47:50.788Z,7.70
2018-08-28T08:48:50.775Z,7.80
2018-08-28T08:49:50.761Z,10.10
2018-08-28T08:50:50.747Z,10.90
2018-08-28T08:51:50.733Z,7.80
2018-08-28T08:52:50.716Z,6.50
2018-08-28T08:53:50.702Z,8.70
2018-08-28T08:54:50.755Z,9.90
2018-08-28T08:55:50.679Z,10.00
2018-08-28T08:56:50.661Z,7.40
2018-08-28T08:57:50.649Z,6.90
2018-08-28T08:58:50.636Z,8.50
2018-08-28T08:59:50.618Z,11.40
2018-08-28T09:00:50.606Z,7.70
2018-08-28T09:01:50.592Z,7.90
2018-08-28T09:02:50.585Z,8.20
2018-08-28T09:03:50.564Z,6.70
2018-08-28T09:04:50.550Z,7.60
2018-08-28T09:05:50.538Z,8.30
2018-08-28T09:06:50.522Z,7.90
2018-08-28T09:07:50.509Z,6.90
2018-08-28T09:08:50.495Z,7.50
2018-08-28T09:09:50.481Z,7.10
2018-08-28T09:10:50.469Z,6.40
2018-08-28T09:11:50.455Z,6.00
2018-08-28T09:12:50.441Z,7.20
2018-08-28T09:13:50.427Z,5.80
2018-08-28T09:14:50.415Z,5.50
2018-08-28T09:15:50.401Z,8.30
2018-08-28T09:16:50.388Z,8.30
2018-08-28T09:17:50.377Z,7.10
2018-08-28T09:18:50.361Z,5.10
2018-08-28T09:19:50.346Z,6.60
2018-08-28T09:20:50.332Z,5.80
2018-08-28T09:21:50.319Z,7.70
2018-08-28T09:22:50.305Z,6.90
2018-08-28T09:23:50.290Z,5.30
2018-08-28T09:24:50.276Z,7.30
2018-08-28T09:25:50.264Z,4.80
2018-08-28T09:26:50.250Z,7.70
2018-08-28T09:27:50.280Z,6.10
2018-08-28T09:28:50.219Z,8.90
2018-08-28T09:29:50.207Z,6.60
2018-08-28T09:30:50.192Z,7.00
2018-08-28T09:31:50.178Z,9.40
2018-08-28T09:32:50.165Z,7.20
2018-08-28T09:33:50.151Z,7.00
2018-08-28T09:34:50.141Z,9.30
2018-08-28T09:35:50.124Z,6.00
2018-08-28T09:36:50.110Z,6.40
2018-08-28T09:37:50.098Z,8.80
2018-08-28T09:38:50.185Z,5.30
2018-08-28T09:39:50.068Z,5.90
2018-08-28T09:40:50.054Z,7.50
2018-08-28T09:41:50.040Z,5.40
2018-08-28T09:42:50.027Z,6.40
2018-08-28T09:43:50.021Z,10.10
2018-08-28T09:44:50.001Z,6.50
2018-08-28T09:45:49.981Z,4.90
2018-08-28T09:46:49.968Z,7.50
2018-08-28T09:47:49.990Z,5.20
2018-08-28T09:48:49.935Z,5.20
2018-08-28T09:49:49.925Z,6.30
2018-08-28T09:50:49.917Z,6.20
2018-08-28T09:51:49.888Z,4.20
2018-08-28T09:52:49.872Z,7.00
2018-08-28T09:53:49.859Z,4.40
2018-08-28T09:54:49.840Z,5.00
2018-08-28T09:55:49.823Z,4.50
2018-08-28T09:56:49.807Z,5.20
2018-08-28T09:57:49.791Z,6.50
2018-08-28T09:58:49.777Z,5.00
2018-08-28T09:59:49.761Z,5.70
2018-08-28T10:00:49.743Z,6.90
2018-08-28T10:01:49.729Z,4.70
2018-08-28T10:02:49.713Z,5.30
2018-08-28T10:03:49.697Z,7.10
2018-08-28T10:04:49.780Z,5.60
2018-08-28T10:05:49.667Z,8.10
2018-08-28T10:06:49.652Z,5.70
2018-08-28T10:07:49.668Z,5.20
2018-08-28T10:08:49.624Z,5.50
2018-08-28T10:09:49.609Z,6.20
2018-08-28T10:10:49.614Z,7.10
2018-08-28T10:11:49.583Z,5.60
2018-08-28T10:12:49.567Z,6.10
2018-08-28T10:13:49.555Z,5.40
2018-08-28T10:14:49.542Z,6.00
2018-08-28T10:15:49.526Z,5.80
2018-08-28T10:16:49.514Z,7.60
2018-08-28T10:17:49.504Z,8.20
2018-08-28T10:18:49.490Z,5.50
2018-08-28T10:19:49.474Z,7.80
2018-08-28T10:20:49.463Z,6.20
2018-08-28T10:21:49.450Z,5.80
2018-08-28T10:22:49.496Z,7.50
2018-08-28T10:23:49.424Z,5.40
2018-08-28T10:24:49.412Z,9.10
2018-08-28T10:25:49.399Z,4.70
2018-08-28T10:26:49.386Z,7.00
2018-08-28T10:27:49.371Z,7.00
2018-08-28T10:28:49.360Z,4.60
2018-08-28T10:29:49.354Z,7.20
2018-08-28T10:30:49.329Z,6.00
2018-08-28T10:31:49.314Z,4.80
2018-08-28T10:32:49.299Z,5.80
2018-08-28T10:33:49.286Z,5.90
2018-08-28T10:34:49.271Z,5.80
2018-08-28T10:35:49.256Z,5.70
2018-08-28T10:36:49.241Z,5.70
2018-08-28T10:37:49.226Z,6.30
2018-08-28T10:38:49.212Z,7.00
2018-08-28T10:39:49.194Z,7.30
2018-08-28T10:40:49.180Z,6.90
2018-08-28T10:41:49.166Z,6.30
2018-08-28T10:42:49.149Z,6.40
2018-08-28T10:43:49.134Z,5.80
2018-08-28T10:44:49.118Z,8.20
2018-08-28T10:45:49.105Z,5.00
2018-08-28T10:46:49.247Z,7.30
2018-08-28T10:47:49.072Z,5.30
2018-08-28T10:48:49.055Z,5.00
2018-08-28T10:49:49.049Z,5.90
2018-08-28T10:50:49.021Z,5.00
2018-08-28T10:51:49.010Z,6.80
2018-08-28T10:52:49.002Z,4.80
2018-08-28T10:53:48.973Z,5.70
2018-08-28T10:54:48.959Z,5.10
2018-08-28T10:55:48.940Z,6.40
2018-08-28T10:56:48.924Z,5.80
2018-08-28T10:57:48.915Z,6.30
2018-08-28T10:58:49.053Z,6.10
2018-08-28T10:59:48.875Z,6.10
2018-08-28T11:00:48.858Z,5.20
2018-08-28T11:01:48.842Z,5.20
2018-08-28T11:02:48.826Z,5.90
2018-08-28T11:03:48.809Z,4.90
2018-08-28T11:04:48.793Z,3.30
2018-08-28T11:05:48.777Z,7.40
2018-08-28T11:06:48.763Z,5.00
2018-08-28T11:07:48.743Z,4.00
2018-08-28T11:08:48.751Z,5.10
2018-08-28T11:09:48.710Z,7.20
2018-08-28T11:10:48.695Z,5.70
2018-08-28T11:11:48.682Z,4.80
2018-08-28T11:12:48.663Z,5.00
2018-08-28T11:13:48.645Z,4.10
2018-08-28T11:14:48.631Z,4.00
2018-08-28T11:15:48.612Z,4.70
2018-08-28T11:16:48.598Z,4.20
2018-08-28T11:17:48.582Z,5.20
2018-08-28T11:18:48.569Z,7.50
2018-08-28T11:19:48.550Z,5.90
2018-08-28T11:20:48.538Z,4.60
2018-08-28T11:21:48.522Z,6.80
2018-08-28T11:22:48.538Z,5.50
2018-08-28T11:23:48.489Z,6.30
2018-08-28T11:24:48.479Z,7.20
2018-08-28T11:25:48.462Z,5.50
2018-08-28T11:26:48.447Z,5.50
2018-08-28T11:27:48.431Z,4.00
2018-08-28T11:28:48.423Z,6.10
2018-08-28T11:29:48.404Z,5.60
2018-08-28T11:30:48.389Z,4.70
2018-08-28T11:31:48.374Z,6.00
2018-08-28T11:32:48.361Z,4.80
2018-08-28T11:33:48.347Z,8.10
2018-08-28T11:34:48.332Z,6.00
2018-08-28T11:35:48.384Z,7.60
2018-08-28T11:36:48.304Z,6.10
2018-08-28T11:37:48.291Z,5.10
2018-08-28T11:38:48.279Z,5.90
2018-08-28T11:39:48.264Z,7.90
2018-08-28T11:40:48.249Z,7.50
2018-08-28T11:41:48.236Z,7.30
2018-08-28T11:42:48.224Z,4.50
2018-08-28T11:43:48.208Z,6.60
2018-08-28T11:44:48.193Z,7.60
2018-08-28T11:45:48.182Z,5.00
2018-08-28T11:46:48.166Z,5.10
2018-08-28T11:47:48.152Z,5.70
2018-08-28T11:48:48.139Z,7.80
2018-08-28T11:49:48.125Z,5.30
2018-08-28T11:50:48.110Z,5.70
2018-08-28T11:51:48.094Z,5.90
2018-08-28T11:52:48.081Z,6.40
2018-08-28T11:53:48.068Z,5.20
2018-08-28T11:54:48.055Z,4.40
2018-08-28T11:55:48.039Z,5.30
2018-08-28T11:56:48.023Z,6.50
2018-08-28T11:57:48.009Z,6.30
2018-08-28T11:58:47.995Z,5.60
2018-08-28T11:59:47.980Z,5.80
2018-08-28T12:00:47.964Z,7.30
2018-08-28T12:01:48.008Z,6.90
2018-08-28T12:02:47.940Z,7.50
2018-08-28T12:03:47.918Z,4.10
2018-08-28T12:04:47.915Z,7.30
2018-08-28T12:05:47.890Z,6.50
2018-08-28T12:06:47.909Z,4.40
2018-08-28T12:07:47.896Z,4.30
2018-08-28T12:08:47.844Z,5.90
2018-08-28T12:09:47.829Z,5.60
2018-08-28T12:10:47.812Z,5.40
2018-08-28T12:11:47.798Z,4.90
2018-08-28T12:12:47.785Z,4.80
2018-08-28T12:13:47.765Z,5.70
2018-08-28T12:14:47.751Z,4.20
2018-08-28T12:15:47.734Z,8.40
2018-08-28T12:16:47.719Z,6.70
2018-08-28T12:17:47.704Z,4.50
2018-08-28T12:18:47.686Z,5.40
2018-08-28T12:19:47.671Z,5.30
2018-08-28T12:20:47.699Z,4.80
2018-08-28T12:21:47.638Z,4.90
2018-08-28T12:22:47.623Z,8.20
2018-08-28T12:23:47.605Z,4.70
2018-08-28T12:24:47.590Z,5.00
2018-08-28T12:25:47.576Z,4.40
2018-08-28T12:26:47.644Z,5.80
2018-08-28T12:27:47.538Z,6.30
2018-08-28T12:28:47.522Z,7.00
2018-08-28T12:29:47.592Z,4.40
2018-08-28T12:30:47.486Z,5.10
2018-08-28T12:31:47.475Z,5.70
2018-08-28T12:32:47.453Z,5.60
2018-08-28T12:33:47.438Z,4.70
2018-08-28T12:34:47.431Z,4.00
2018-08-28T12:35:47.401Z,6.80
2018-08-28T12:36:47.529Z,5.90
2018-08-28T12:37:47.372Z,5.90
2018-08-28T12:38:47.351Z,6.80
2018-08-28T12:39:47.331Z,6.30
2018-08-28T12:40:47.314Z,4.30
2018-08-28T12:41:47.298Z,5.50
2018-08-28T12:42:47.281Z,4.80
2018-08-28T12:43:47.265Z,5.00
2018-08-28T12:44:47.244Z,5.10
2018-08-28T12:45:47.229Z,5.70
2018-08-28T12:46:47.212Z,4.80
2018-08-28T12:47:47.192Z,5.00
2018-08-28T12:48:47.178Z,4.90
2018-08-28T12:49:47.160Z,4.80
2018-08-28T12:50:47.146Z,6.70
2018-08-28T12:51:47.124Z,6.30
2018-08-28T12:52:47.107Z,4.90
2018-08-28T12:53:47.091Z,5.60
2018-08-28T12:54:47.089Z,3.70
2018-08-28T12:55:47.055Z,6.20
2018-08-28T12:56:47.038Z,6.00
2018-08-28T12:57:47.022Z,5.10
2018-08-28T12:58:47.004Z,5.20
2018-08-28T12:59:46.986Z,6.30
2018-08-28T13:00:47.075Z,4.30
2018-08-28T13:01:46.952Z,6.90
2018-08-28T13:02:46.936Z,6.50